Extreme weather reports worldwide

Rain

Station
 
Location
 
Name
 
Wind
Knots
Gust
Knots
Vis
SM
Temp/Dew
C
Baro
inHg
METAR
 
JER EGJJ Saint Helier, JE Jersey Airport 31 50 7/5 29.47 EGJJ 260720Z 02031G50KT 340V050 9999 -RA SCT014 BKN017 07/05 Q0998
ACI EGJA Saint Anne, GG Alderney Airport 30 44 7/4 29.53 EGJA 260720Z 02030G44KT 9999 -RA BKN018 07/04 Q1000
LDV LFRJ Landivisiau, FR Landivisiau Air Base 28 42 7/4 29.59 LFRJ 260730Z AUTO 01028G42KT 9999 -RA BKN020 BKN027 OVC034 07/04 Q1002 TEMPO 4000 SHRA BKN014TCU
GCI EGJB Saint Peter Port, GG Guernsey Airport 26 41 6/4 29.53 EGJB 260720Z 01026G41KT 9999 RA SCT016 BKN025 06/04 Q1000
LEAG 19 41 17/12 29.85 LEAG 260730Z AUTO 26019G41KT 200V330 9999 -RA BKN023/// 17/12 Q1011

Station
 
Location
 
Name
 
Wind
Knots
Gust
Knots
Vis
SM
Temp/Dew
C
Baro
inHg
METAR
 
CQF LFAC Calais/Dunkerque, FR Calais-Dunkerque Airport 29 40 6/5 29.50 LFAC 260730Z AUTO 06029G40KT 9999 -RA BKN017/// OVC023/// ///TCU 06/05 Q0999
CER LFRC Cherbourg/Maupertus, FR Cherbourg-Maupertus Airport 26 40 3.11 6/5 29.50 LFRC 260730Z AUTO 03026G40KT 5000 -RA BR OVC014/// 06/05 Q0999 TEMPO RA BKN008 BKN020CB BECMG 03030G50KT
LFRL Lanvéoc/Poulmic, FR Lanvéoc-Poulmic Air Base 25 40 7/4 29.59 LFRL 260730Z AUTO 01025G40KT 9999 -RA BKN024 OVC029 07/04 Q1002 TEMPO 01030G50KT 4000 BKN010
LYX EGMD Lydd, Ashford, GB Lydd Airport 28 39 4.97 7/6 29.53 EGMD 260720Z AUTO 04028G39KT 8000 -RA BKN017/// OVC038/// 07/06 Q1000
SBK LFRT Saint-Brieuc/Armor, FR Saint-Brieuc-Armor Airport 25 36 4.35 7/5 29.50 LFRT 260730Z AUTO 01025G36KT 7000 RA OVC013/// ///TCU 07/05 Q0999
DNR LFRD Dinard/Pleurtuit/Saint-Malo, FR Dinard-Pleurtuit-Saint-Malo Airport 25 35 4.97 7/6 29.41 LFRD 260730Z AUTO 02025G35KT 8000 -RA OVC013 07/06 Q0996 TEMPO 03030G50KT 3000 RA BKN008 BKN020CB
LEH LFOH Le Havre/Octeville, FR Le Havre Octeville Airport 24 35 6/5 29.38 LFOH 260730Z AUTO 05024G35KT 9999 -RA BKN015 BKN030 BKN041 06/05 Q0995 TEMPO 3000 RA OVC007 OVC013TCU
OST EBOS Ostend, BE Ostend-Bruges International Airport 24 34 6/4 29.53 EBOS 260720Z 05024G34KT 9999 -RA SCT014 SCT017 BKN024 06/04 Q1000 TEMPO 4500 RA BKN012
AEY BIAR Akureyri, IS Akureyri Airport 21 34 4/-2 29.29 BIAR 260700Z 15021G34KT 9999 -SHRA FEW032 BKN059 04/M02 Q0992
EBFN Koksijde, BE Koksijde Air Base 23 33 6/4 29.53 EBFN 260725Z AUTO 05023G33KT 9999 -RA OVC017/// 06/04 Q1000 WHT
ANX ENAN Andenes, NO Andøya Airport 21 33 3.73 3/2 29.35 ENAN 260720Z 25021G33KT 6000 -SHRADZ FEW005 BKN008 03/02 Q0994
LCG LECO Culleredo, ES A Coruña Airport 20 32 10/5 29.85 LECO 260730Z 36020G32KT 320V040 9999 -SHRA VCSH FEW013 SCT022 FEW030TCU BKN033 10/05 Q1011 TEMPO 3000 SHRA SCT030TCU
SDR LEXJ Santander, ES Santander Airport 17 32 5.59 9/7 29.62 LEXJ 260730Z 26017G32KT 220V280 9000 -RA FEW014 BKN028 BKN040 09/07 Q1003
PUW KPUW Pullman/Moscow, US Pullman Moscow Regional Airport 16 32 9 5/2 29.57 KPUW 260653Z AUTO 25016G32KT 9SM -RA OVC025 06/02 A2957 RMK AO2 PK WND 24046/0636 SLP021 P0004 T00560022 $
TTU GMTN Tétouan, MA Saniat R'mel Airport 20 30 2.49 15/12 29.91 GMTN 260700Z 26020G30KT 230V290 4000 -RA SCT008 OVC026 15/12 Q1013 NOSIG
BKE KBKE Baker City, US Baker City Municipal Airport 17 30 10/0 29.66 KBKE 260653Z AUTO 20017G30KT 10SM -RA OVC065 11/00 A2966 RMK AO2 PK WND 19030/0647 RAE0556B17 SLP036 P0000 T01060000
GRX LEGR Granada, ES Federico Garcia Lorca Airport 18 28 3.73 11/10 29.79 LEGR 260730Z 27018G28KT 240V300 6000 RA FEW010 SCT027 BKN054 11/10 Q1009
KHS OOKB Khasab, OM Khasab Air Base 12 26 5.59 24/16 29.79 OOKB 260650Z 30012G26KT 250V340 9000 -RA SCT035 BKN080 24/16 Q1009 NOSIG
DOL LFRG Deauville, FR Deauville-Saint-Gatien Airport 13 24 5.59 5/4 29.38 LFRG 260730Z AUTO 03013G24KT 010V070 9000 RA BKN008 OVC012 05/04 Q0995 TEMPO 3000 RA BKN008 BKN015CB
RJDM JP Metabaru Air Base 12 24 11/5 30.21 RJDM 260705Z 36012G24KT 9999 -SHRA FEW015 BKN040 11/05 Q1023 RMK 1CU015 5CU040 A3021
TJH RJBT Toyooka, JP Konotori Tajima Airport 12 24 4/0 30.18 RJBT 260715Z 36012G24KT 330V030 9999 -SHRA FEW015 SCT025 BKN035 04/00 Q1022 RMK 1CU015 3CU025 5CU035 A3019
KSZT Sandpoint, US Sandpoint Airport 12 24 5 5/1 29.42 KSZT 260715Z AUTO 23012G24KT 188V258 5SM -RA OVC025 05/01 A2942 RMK AO2
FUK RJFF Fukuoka, JP Fukuoka Airport 12 22 10/4 30.21 RJFF 260700Z 01012G22KT 340V040 9999 -SHRA FEW015 SCT025 BKN035 10/04 Q1023 NOSIG RMK 1CU015 3CU025 5CU035 A3022
PGX LFBX Périgueux/Bassillac, FR Périgueux-Bassillac Airport 10 21 10/8 29.32 LFBX 260730Z AUTO 22010G21KT 180V260 9999 -RA BKN018/// BKN026/// BKN039/// //////CB 10/08 Q0993
SYO RJSY Shonai, JP Shonai Airport 10 21 5/1 30.00 RJSY 260700Z 32010G21KT 280V030 9999 -SHRA FEW010 SCT030 BKN040 05/01 Q1016
IWJ RJOW Masuda, JP Iwami Airport 10 21 8/2 30.21 RJOW 260700Z 01010G21KT 330V060 9999 -SHRA FEW015 BKN025 BKN030 08/02 Q1023
OTH KOTH North Bend, US Southwest Oregon Regional Airport 11 17 8 9/8 29.97 KOTH 260731Z AUTO 21011G17KT 8SM -RA FEW007 BKN019 OVC025 09/08 A2997 RMK AO2 P0002
ULWC 8 17 5.59 -1/-3 30.15 ULWC 260730Z 17004G09MPS 9000 -FZRA OVC004 M01/M03 Q1021 R21/690542 TEMPO 1500 SN -FZRA BKN003 OVC010 RMK QBB130 QFE755/1007
MKZ WMKM Malacca, MY Malacca Airport 6 17 29/26 29.82 WMKM 260700Z 04006G17KT 340V080 9999 -SHRA FEW017CB SCT020 29/26 Q1010
K6S2 7 16 3 10/10 29.92 K6S2 260735Z AUTO 24007G16KT 210V280 3SM RA BR SCT012 BKN018 OVC031 10/10 A2992 RMK AO2
K4S2 6 16 7 5/3 29.73 K4S2 260735Z AUTO 28006G16KT 7SM -RA OVC034 05/03 A2973 RMK AO2 P0003
KS34 6 12 3 6/4 29.44 KS34 260715Z AUTO 19006G12KT 3SM -RA BR FEW013 BKN023 06/04 A2944 RMK AO2
KEF BIKF Reykjavík, IS Keflavik International Airport 28 4.35 5/5 29.23 BIKF 260730Z 20028KT 7000 -RA BKN012 OVC030 05/05 Q0990
RKV BIRK Reykjavik, IS Reykjavik Airport 27 5.59 6/4 29.29 BIRK 260700Z 20027KT 9000 -RA OVC011 06/04 Q0992
EHFS 25 6/3 29.53 EHFS 260725Z AUTO 03025KT 9999 -RA FEW020/// BKN029/// OVC033/// 06/03 Q1000
ENQA NO Troll A Platform 25 3.73 4/1 29.85 ENQA 260720Z AUTO 35025KT 6000 -SHRA OVC013/// 04/01 Q1011 W03/S5
LIRX 21 3.11 9/8 29.62 LIRX 260655Z 16021KT 5000 -RA BR SCT004 BKN030 09/08 Q1003 RMK OVC VIS MIN 5000 VIS MAR 5 KM
BOD LFBD Bordeaux/Mérignac, FR Bordeaux-Mérignac Airport 21 4.97 10/9 29.32 LFBD 260730Z AUTO 25021KT 8000 3800 -RA BKN013/// BKN019/// BKN034/// ///CB 10/09 Q0993 TEMPO 25020G35KT 3000 SHRA
TTJ RJOR Tottori, JP Tottori Sand Dunes Conan Airport 21 6/2 30.21 RJOR 260700Z 01021KT 9999 -SHRA FEW020 SCT030 BKN040 06/02 Q1023
CFR LFRK Caen/Carpiquet, FR Caen-Carpiquet Airport 19 5.59 7/5 29.38 LFRK 260730Z AUTO 03019KT 9000 -RA BKN011/// BKN018/// OVC026/// 07/05 Q0995 TEMPO 3000 RA BKN008 BKN015CB BECMG 03020G40KT
TOS ENTC Tromsø, NO Tromsø Airport 18 2/0 29.32 ENTC 260720Z 18018KT 9999 -SHRA BKN014 02/M00 Q0993 TEMPO 4000 RASN BKN008 RMK WIND 2600FT 18023KT
KKJ RJFR Kitakyushu, JP Kitakyushu Airport 18 10/4 30.21 RJFR 260700Z 01018KT 9999 -SHRA FEW020 SCT045 BKN060 10/04 Q1023
FMI FZRF CD Kalemie Airport 18 3.11 25/19 30.12 FZRF 260700Z 33018KT 5000 VCTSRA BKN010 FEW022CB 25/19 Q1020 TEMPO TS
BYF LFAQ Albert/Bray, FR Albert-Bray Airport 17 2.49 6/5 29.38 LFAQ 260730Z AUTO 04017KT 4000 -RA BR OVC006/// ///CB 06/05 Q0995 TEMPO 05020G32KT RA
KMQ RJNK Kanazawa, JP Komatsu Airport 17 4.97 5/2 30.15 RJNK 260700Z 03017KT 8000 -SHRA SCT008 BKN015 BKN030 05/02 Q1021 REFC